Time;durP1;ratioP1;P1;durP2;ratioP2;P2;SDS_P1;SDS_P2;PMS_P1;PMS_P2;Temp;Humidity;BMP_temperature;BMP_pressure;BME280_temperature;BME280_humidity;BME280_pressure;Samples;Min_cycle;Max_cycle;Signal;HPM_P1;HPM_P2
2021/05/26 00:14:03;;;;;;;8.23;5.00;;;;;;;11.08;100.00;100106.61;712134;1180;113975;-77
2021/05/26 00:29:24;;;;;;;8.10;4.90;;;;;;;10.80;100.00;100115.23;712264;1205;115529;-79
2021/05/26 00:44:44;;;;;;;8.60;5.10;;;;;;;10.52;100.00;100118.70;712296;1202;114011;-81
2021/05/26 01:00:07;;;;;;;8.78;4.30;;;;;;;10.22;100.00;100113.44;712420;1203;114731;-79
2021/05/26 01:15:28;;;;;;;10.63;4.63;;;;;;;9.97;100.00;100122.66;712375;1202;115381;-76
2021/05/26 01:30:48;;;;;;;8.97;4.03;;;;;;;9.80;100.00;100130.19;712320;1203;115846;-80
2021/05/26 01:46:09;;;;;;;6.10;3.20;;;;;;;9.69;100.00;100147.80;712260;1201;114045;-80
2021/05/26 02:01:30;;;;;;;3.47;2.47;;;;;;;9.56;100.00;100151.48;712433;1203;114366;-81
2021/05/26 02:16:50;;;;;;;7.27;2.87;;;;;;;9.46;100.00;100138.37;712652;1202;114390;-80
2021/05/26 02:32:11;;;;;;;4.78;2.90;;;;;;;9.31;100.00;100144.91;712354;1206;115450;-78
2021/05/26 02:47:32;;;;;;;5.93;2.88;;;;;;;9.07;100.00;100148.63;712337;1203;114664;-80
2021/05/26 03:02:53;;;;;;;4.50;2.77;;;;;;;8.95;100.00;100154.91;712583;1202;115433;-76
2021/05/26 03:18:13;;;;;;;4.20;2.70;;;;;;;8.82;100.00;100171.59;712449;1179;114245;-75
2021/05/26 03:33:34;;;;;;;6.10;2.93;;;;;;;8.95;100.00;100187.13;712455;1205;114248;-76
2021/05/26 03:48:54;;;;;;;5.90;3.08;;;;;;;9.20;100.00;100192.08;712413;1182;113893;-76
2021/05/26 04:04:15;;;;;;;3.88;2.33;;;;;;;9.53;100.00;100195.44;712476;1202;115069;-75
2021/05/26 04:19:35;;;;;;;6.20;3.87;;;;;;;9.82;100.00;100212.11;712821;1202;114142;-75
2021/05/26 04:34:56;;;;;;;4.13;2.55;;;;;;;10.11;100.00;100213.19;712716;1206;114115;-76
2021/05/26 04:50:18;;;;;;;12.40;4.15;;;;;;;10.51;100.00;100221.98;712402;1206;114506;-76
2021/05/26 05:05:38;;;;;;;3.90;2.97;;;;;;;11.01;100.00;100228.88;715135;1169;114304;-74
2021/05/26 05:20:59;;;;;;;7.50;3.83;;;;;;;11.66;100.00;100234.28;712488;1200;114663;-74
2021/05/26 05:36:19;;;;;;;10.15;4.80;;;;;;;11.82;100.00;100231.89;712868;1202;115501;-74
2021/05/26 05:51:39;;;;;;;3.90;2.45;;;;;;;11.81;100.00;100237.27;712771;1203;114233;-74
2021/05/26 06:07:00;;;;;;;6.35;3.43;;;;;;;12.08;100.00;100233.86;712644;1203;115552;-75
2021/05/26 06:22:21;;;;;;;7.48;3.75;;;;;;;12.05;100.00;100233.31;713034;1206;115022;-76
2021/05/26 06:37:42;;;;;;;8.93;4.95;;;;;;;12.11;100.00;100228.30;712917;1205;114630;-74
2021/05/26 06:53:03;;;;;;;5.95;3.50;;;;;;;12.71;100.00;100236.65;712996;1203;114189;-73
2021/05/26 07:08:23;;;;;;;4.67;4.03;;;;;;;12.98;100.00;100251.54;713121;1202;115251;-75
2021/05/26 07:23:44;;;;;;;6.40;3.50;;;;;;;13.40;100.00;100253.53;712973;1202;115555;-74
2021/05/26 07:39:05;;;;;;;3.97;2.67;;;;;;;14.01;100.00;100256.17;712846;1203;114475;-73
2021/05/26 07:54:27;;;;;;;4.83;2.30;;;;;;;13.51;98.57;100262.98;725475;1201;115413;-74
2021/05/26 08:09:47;;;;;;;4.63;4.18;;;;;;;13.55;94.73;100284.59;716938;1202;114754;-74
2021/05/26 08:25:09;;;;;;;4.60;2.48;;;;;;;14.61;92.07;100270.23;712781;1206;114588;-73
2021/05/26 08:40:30;;;;;;;7.30;5.70;;;;;;;15.46;87.46;100262.00;712807;1205;114466;-73
2021/05/26 08:55:52;;;;;;;1.65;1.48;;;;;;;15.07;84.87;100254.80;712799;1206;115499;-73
2021/05/26 09:11:13;;;;;;;4.50;2.93;;;;;;;14.40;85.63;100253.02;712857;1202;115075;-73
2021/05/26 09:26:52;;;;;;;9.13;2.70;;;;;;;14.17;84.27;100255.41;712898;1202;115629;-71
2021/05/26 09:42:25;;;;;;;4.18;2.78;;;;;;;14.07;85.00;100265.28;712853;1202;115240;-71
2021/05/26 09:57:50;;;;;;;3.90;1.90;;;;;;;15.06;83.79;100262.89;712600;1203;114718;-73
2021/05/26 10:13:12;;;;;;;2.30;1.30;;;;;;;15.56;76.72;100275.06;712965;1203;114425;-72
2021/05/26 10:28:33;;;;;;;2.20;1.47;;;;;;;15.06;79.50;100273.45;712902;1202;115360;-73
2021/05/26 10:43:57;;;;;;;5.33;1.55;;;;;;;15.37;78.48;100262.20;712831;1206;114584;-73
2021/05/26 10:59:18;;;;;;;4.07;1.90;;;;;;;14.95;80.04;100269.30;712768;1203;114210;-73
2021/05/26 11:14:39;;;;;;;3.15;2.18;;;;;;;15.40;79.26;100270.63;716749;1201;114161;-72
2021/05/26 11:30:03;;;;;;;3.90;2.80;;;;;;;15.71;78.10;100272.54;717755;1202;114041;-73
2021/05/26 11:45:24;;;;;;;3.60;1.83;;;;;;;16.22;76.68;100255.52;713413;1178;114289;-73
2021/05/26 12:00:45;;;;;;;7.53;1.73;;;;;;;17.35;73.40;100240.83;712377;1206;114421;-73
2021/05/26 12:16:10;;;;;;;5.10;2.27;;;;;;;18.55;70.13;100217.65;712344;1202;115666;-73
2021/05/26 12:31:32;;;;;;;12.53;5.55;;;;;;;17.19;68.08;100199.40;712209;1206;114134;-73
2021/05/26 12:46:56;;;;;;;21.55;11.40;;;;;;;16.83;68.47;100186.78;712308;1180;115126;-74
2021/05/26 13:02:17;;;;;;;1.90;1.30;;;;;;;17.79;66.47;100165.75;712133;1205;114760;-74
2021/05/26 13:17:37;;;;;;;1.93;1.10;;;;;;;17.32;65.83;100163.51;712353;1203;114419;-74
2021/05/26 13:32:58;;;;;;;2.63;2.10;;;;;;;17.80;63.56;100138.22;712918;1202;115023;-74
2021/05/26 13:48:20;;;;;;;5.60;4.13;;;;;;;18.55;62.35;100119.38;712797;1202;114084;-74
2021/05/26 14:03:41;;;;;;;11.10;2.20;;;;;;;19.00;60.53;100113.80;712838;1202;114792;-75
2021/05/26 14:19:01;;;;;;;2.70;1.30;;;;;;;19.70;60.02;100124.38;712755;1181;114124;-75
2021/05/26 14:34:23;;;;;;;2.60;1.05;;;;;;;19.45;58.53;100090.34;712859;1203;114255;-74
2021/05/26 14:49:44;;;;;;;8.03;1.30;;;;;;;19.77;58.82;100072.02;713315;1206;116512;-73
2021/05/26 15:05:05;;;;;;;3.65;1.65;;;;;;;19.63;56.60;100067.67;712915;1203;115091;-73
2021/05/26 15:20:26;;;;;;;2.03;1.13;;;;;;;19.31;55.13;100045.25;713151;1205;114585;-74
2021/05/26 15:35:47;;;;;;;3.40;1.45;;;;;;;18.13;57.54;100036.94;712437;1206;114650;-72
2021/05/26 15:51:08;;;;;;;5.98;3.03;;;;;;;15.97;66.87;100059.88;712388;1180;114069;-72
2021/05/26 16:06:28;;;;;;;9.70;4.30;;;;;;;17.43;70.23;100033.95;712299;1180;113993;-72
2021/05/26 16:21:49;;;;;;;5.03;2.35;;;;;;;17.57;70.10;100029.60;712759;1180;113956;-74
2021/05/26 16:37:10;;;;;;;2.93;1.80;;;;;;;17.25;72.68;100026.39;712456;1202;114569;-77
2021/05/26 16:52:31;;;;;;;13.10;4.38;;;;;;;17.87;73.19;100034.82;712295;1177;114445;-74
2021/05/26 17:07:51;;;;;;;6.08;2.80;;;;;;;17.41;69.35;100017.39;712309;1206;114119;-76
2021/05/26 17:23:12;;;;;;;12.80;5.17;;;;;;;16.94;67.71;100037.19;712487;1203;115771;-77
2021/05/26 17:38:33;;;;;;;12.13;5.15;;;;;;;15.81;74.74;100058.17;713205;1205;114184;-75
2021/05/26 17:53:55;;;;;;;18.85;9.08;;;;;;;15.19;79.80;100057.13;712684;1188;114261;-75
2021/05/26 18:09:15;;;;;;;48.40;25.10;;;;;;;14.78;83.20;100044.86;712906;1181;114112;-74
2021/05/26 18:24:37;;;;;;;61.15;45.65;;;;;;;14.55;87.52;100033.31;712947;1183;114354;-73
2021/05/26 18:39:59;;;;;;;22.67;14.20;;;;;;;14.14;91.75;100037.61;712982;1181;114440;-74
2021/05/26 18:55:20;;;;;;;15.10;8.20;;;;;;;13.79;94.78;100065.94;712972;1180;114745;-73
2021/05/26 19:10:42;;;;;;;45.80;19.33;;;;;;;13.58;99.09;100047.08;713015;1203;114380;-73
2021/05/26 19:26:02;;;;;;;45.20;18.83;;;;;;;13.56;99.33;100049.88;713044;1187;114317;-75
2021/05/26 19:41:25;;;;;;;25.88;12.75;;;;;;;13.45;100.00;100042.29;712951;1202;115034;-74
2021/05/26 19:56:45;;;;;;;8.23;4.33;;;;;;;13.02;100.00;100033.52;712975;1180;114914;-75
2021/05/26 20:12:08;;;;;;;32.93;15.93;;;;;;;13.04;100.00;100019.22;713476;1195;114633;-74
2021/05/26 20:27:33;;;;;;;15.98;8.38;;;;;;;12.79;100.00;100026.98;713353;1180;115348;-72
2021/05/26 20:43:01;;;;;;;7.30;2.00;;;;;;;13.06;100.00;100029.59;713197;1181;114123;-75
2021/05/26 20:58:24;;;;;;;4.38;1.50;;;;;;;12.75;100.00;100001.95;713298;1202;113981;-75
2021/05/26 21:13:45;;;;;;;1.93;1.17;;;;;;;12.45;100.00;100019.86;713121;1202;114755;-75
2021/05/26 21:29:05;;;;;;;2.93;1.50;;;;;;;12.27;100.00;100053.25;713248;1202;113228;-75
2021/05/26 21:44:25;;;;;;;2.43;1.50;;;;;;;12.32;100.00;100074.67;712559;1180;114878;-75
2021/05/26 21:59:48;;;;;;;1.93;1.48;;;;;;;12.17;100.00;100045.46;712685;1203;114123;-75
2021/05/26 22:15:13;;;;;;;5.50;1.65;;;;;;;11.93;100.00;100031.09;712600;1180;114084;-77
2021/05/26 22:30:36;;;;;;;3.20;1.90;;;;;;;11.63;100.00;100016.51;713575;1177;115270;-73
2021/05/26 23:01:23;;;;;;;5.48;1.93;;;;;;;11.17;100.00;100003.36;712423;1203;114886;-73
2021/05/26 23:16:43;;;;;;;3.98;2.30;;;;;;;10.97;100.00;100000.81;712306;1202;115070;-73
2021/05/26 23:32:04;;;;;;;2.93;2.10;;;;;;;10.82;100.00;99984.73;712375;1206;114951;-74
2021/05/26 23:47:24;;;;;;;5.45;2.10;;;;;;;10.73;100.00;99984.74;712380;1202;114285;-74
